Leonie — PHLE — position and weather

sailwx.info

Track history (hours):
 
Tides and Currents Weather Stations Pressure Air Temp Water Temp Dewpoint Dewpoint Depression Visibility Wind Speed Wind Dir Waves Ship Positions

Leonie

Last reported at 2016-Apr-24 02:31 UTC. Time now 2016-May-02 19:21 UTC.
Position N 06°27' E 003°22'.
Warning: this ship's position is 8 days out of date.

Length 90 m; draft 5.4 m.

Type: Cargo ship. MMSI: 244772000.

Date/timePositionNaut miles runAvg speedWind from/ knotsBaromVisibWave heightAir tempDewpointWater temp
2016-Apr-24 02:31N 06°27' E 003°22'3020275.2
2016-Apr-23 15:33N 55°41' E 015°34'1111.5
2016-Apr-23 14:33N 55°35' E 015°17'1211.6
2016-Apr-23 13:34N 55°29' E 014°60'1211.6
2016-Apr-23 12:34N 55°24' E 014°42'1211.6
2016-Apr-23 11:34N 55°15' E 014°29'1111.5
2016-Apr-23 10:34N 55°06' E 014°16'1211.5
2016-Apr-23 09:34N 54°59' E 014°00'1211.8
2016-Apr-23 08:33N 54°54' E 013°41'1111.5
2016-Apr-23 07:33N 54°50' E 013°23'2311.6
2016-Apr-23 05:33N 54°42' E 012°45'1711.9
2016-Apr-23 04:08N 54°32' E 012°21'711.6
2016-Apr-23 03:32N 54°27' E 012°13'1111.2
2016-Apr-23 02:33N 54°25' E 011°55'1212.0
2016-Apr-23 01:34N 54°28' E 011°35'1212.1
2016-Apr-23 00:33N 54°33' E 011°16'1312.6
2016-Apr-22 23:34N 54°34' E 010°54'1211.9
2016-Apr-22 22:33N 54°33' E 010°34'1111.4
2016-Apr-22 21:34N 54°28' E 010°16'7 7.3
2016-Apr-22 20:33N 54°22' E 010°09'3 3.3
2016-Apr-22 19:34N 54°22' E 010°03'8 7.7
2016-Apr-22 18:33N 54°22' E 009°49'9 7.8
2016-Apr-22 17:23N 54°16' E 009°38'7 7.9
2016-Apr-22 16:27N 54°11' E 009°29'7 7.8
2016-Apr-22 15:33N 54°06' E 009°20'8 8.4
2016-Apr-22 14:33N 53°58' E 009°16'6 5.6
2016-Apr-22 13:33N 53°54' E 009°09'0 0.0
2016-Apr-22 12:33N 53°54' E 009°09'0 0.3
2016-Apr-22 11:33N 53°54' E 009°09'0 0.1
2016-Apr-22 10:33N 53°54' E 009°09'2 1.7
2016-Apr-22 09:33N 53°53' E 009°06'5 4.7
2016-Apr-22 08:33N 53°51' E 008°59'9 8.6
2016-Apr-22 07:34N 53°51' E 008°45'8 8.4
2016-Apr-22 06:33N 53°58' E 008°35'9 8.6
2016-Apr-22 05:32N 53°59' E 008°20'1010.4
2016-Apr-22 04:33N 53°58' E 008°03'1010.4
2016-Apr-22 03:33N 53°56' E 007°46'1010.2
2016-Apr-22 02:33N 53°54' E 007°29'1010.3
2016-Apr-22 01:34N 53°51' E 007°12'1110.7
2016-Apr-22 00:33N 53°48' E 006°55'1110.9
2016-Apr-21 23:33N 53°43' E 006°38'1010.1
2016-Apr-21 22:34N 53°37' E 006°25'1110.7
2016-Apr-21 21:34N 53°33' E 006°41'10 9.9
2016-Apr-21 20:34N 53°27' E 006°54'9 8.5
2016-Apr-21 19:34N 53°19' E 007°00'2 1.9
2016-Apr-21 18:32N 53°19' E 006°57'0 0.0
2016-Apr-21 17:32N 53°19' E 006°57'0 0.0
2016-Apr-21 16:32N 53°19' E 006°57'0 0.0
2016-Apr-21 15:32N 53°19' E 006°57'0 0.0
2016-Apr-21 14:32N 53°19' E 006°57'0 0.0
2016-Apr-21 13:32N 53°19' E 006°57'0 0.0
2016-Apr-21 12:32N 53°19' E 006°57'0 0.0
2016-Apr-21 11:32N 53°19' E 006°57'0 0.0
2016-Apr-21 10:32N 53°19' E 006°57'0 0.0
2016-Apr-21 09:32N 53°19' E 006°57'1 0.6
2016-Apr-21 08:31N 53°20' E 006°56'0 0.0
2016-Apr-21 07:31N 53°20' E 006°56'0 0.0
2016-Apr-21 06:31N 53°20' E 006°56'0 0.0
2016-Apr-21 05:31N 53°20' E 006°56'0 0.0
2016-Apr-21 04:31N 53°20' E 006°56'0 0.0
2016-Apr-21 03:31N 53°20' E 006°56'0 0.0
2016-Apr-21 02:31N 53°20' E 006°56'0 0.0
2016-Apr-21 01:31N 53°20' E 006°56'0 0.0
2016-Apr-21 00:28N 53°20' E 006°56'0 0.0
2016-Apr-20 23:31N 53°20' E 006°56'0 0.0
2016-Apr-20 22:31N 53°20' E 006°56'0 0.0
2016-Apr-20 21:31N 53°20' E 006°56'0 0.0
2016-Apr-20 20:31N 53°20' E 006°56'0 0.0
2016-Apr-20 19:31N 53°20' E 006°56'0 0.0
2016-Apr-20 18:31N 53°20' E 006°56'0 0.0
2016-Apr-20 17:31N 53°20' E 006°56'0 0.0
2016-Apr-20 16:31N 53°20' E 006°56'0 0.0
2016-Apr-20 15:31N 53°20' E 006°56'0 0.0
2016-Apr-20 14:28N 53°20' E 006°56'0 0.0
2016-Apr-20 13:31N 53°20' E 006°56'0 0.0
2016-Apr-20 12:31N 53°20' E 006°56'0 0.0
2016-Apr-20 11:31N 53°20' E 006°56'0 0.0
2016-Apr-20 10:31N 53°20' E 006°56'0 0.0
2016-Apr-20 09:31N 53°20' E 006°56'0 0.0
2016-Apr-20 08:31N 53°20' E 006°56'0 0.0
2016-Apr-20 07:31N 53°20' E 006°56'0 0.0
2016-Apr-20 06:31N 53°20' E 006°56'0 0.0
2016-Apr-20 05:31N 53°20' E 006°56'0 0.0
2016-Apr-20 04:31N 53°20' E 006°56'0 0.0
2016-Apr-20 03:31N 53°20' E 006°56'0 0.0
2016-Apr-20 02:31N 53°20' E 006°56'0 0.0
2016-Apr-20 01:31N 53°20' E 006°56'0 0.0
2016-Apr-20 00:31N 53°20' E 006°56'0 0.0
2016-Apr-19 23:31N 53°20' E 006°56'0 0.0
2016-Apr-19 22:31N 53°20' E 006°56'0 0.0
2016-Apr-19 21:28N 53°20' E 006°56'0 0.0
2016-Apr-19 20:31N 53°20' E 006°56'0 0.0
2016-Apr-19 19:31N 53°20' E 006°56'0 0.0
2016-Apr-19 18:31N 53°20' E 006°56'0 0.0
2016-Apr-19 17:31N 53°20' E 006°56'0 0.0
2016-Apr-19 16:31N 53°20' E 006°56'0 0.0
2016-Apr-19 15:31N 53°20' E 006°56'0 0.0
2016-Apr-19 14:31N 53°20' E 006°56'0 0.0
2016-Apr-19 13:31N 53°20' E 006°56'0 0.0
2016-Apr-19 12:31N 53°20' E 006°56'0 0.0
2016-Apr-19 11:31N 53°20' E 006°56'0 0.0
2016-Apr-19 10:31N 53°20' E 006°56'0 0.0
2016-Apr-19 09:31N 53°20' E 006°56'0 0.0
2016-Apr-19 08:31N 53°20' E 006°56'0 0.0
2016-Apr-19 07:31N 53°20' E 006°56'0 0.0
2016-Apr-19 06:31N 53°20' E 006°56'0 0.0
2016-Apr-19 05:31N 53°20' E 006°56'0 0.0
2016-Apr-19 04:31N 53°20' E 006°56'0 0.0
2016-Apr-19 03:31N 53°20' E 006°56'0 0.0
2016-Apr-19 02:31N 53°20' E 006°56'0 0.0
2016-Apr-19 01:31N 53°20' E 006°56'0 0.0
2016-Apr-19 00:31N 53°20' E 006°56'0 0.0
2016-Apr-18 23:31N 53°20' E 006°56'0 0.0
2016-Apr-18 22:31N 53°20' E 006°56'0 0.0
2016-Apr-18 21:31N 53°20' E 006°56'0 0.0
2016-Apr-18 20:31N 53°20' E 006°56'0 0.0
2016-Apr-18 19:31N 53°20' E 006°56'0 0.0
2016-Apr-18 18:31N 53°20' E 006°56'0 0.0
2016-Apr-18 17:31N 53°20' E 006°56'0 0.0
2016-Apr-18 16:31N 53°20' E 006°56'0 0.0
2016-Apr-18 15:31N 53°20' E 006°56'0 0.0
2016-Apr-18 14:31N 53°20' E 006°56'0 0.0
2016-Apr-18 13:31N 53°20' E 006°56'0 0.0
2016-Apr-18 12:31N 53°20' E 006°56'0 0.0
2016-Apr-18 11:25N 53°20' E 006°56'0 0.0
2016-Apr-18 10:31N 53°20' E 006°56'0 0.0
2016-Apr-18 09:31N 53°20' E 006°56'0 0.0
2016-Apr-18 08:28N 53°20' E 006°56'0 0.0
2016-Apr-18 07:31N 53°20' E 006°56'0 0.1
2016-Apr-18 06:31N 53°20' E 006°56'0 0.0
2016-Apr-18 05:31N 53°20' E 006°56'0 0.0
2016-Apr-18 04:31N 53°20' E 006°56'0 0.0
2016-Apr-18 03:28N 53°20' E 006°56'0 0.0
2016-Apr-18 02:28N 53°20' E 006°56'0 0.0
2016-Apr-18 01:31N 53°20' E 006°56'0 0.0
2016-Apr-18 00:31N 53°20' E 006°56'0 0.0
2016-Apr-17 23:31N 53°20' E 006°56'0 0.0
2016-Apr-17 22:31N 53°20' E 006°56'0 0.0
2016-Apr-17 21:31N 53°20' E 006°56'0 0.0
2016-Apr-17 20:31N 53°20' E 006°56'0 0.0
2016-Apr-17 19:31N 53°20' E 006°56'0 0.0
2016-Apr-17 18:31N 53°20' E 006°56'0 0.0
2016-Apr-17 17:31N 53°20' E 006°56'0 0.0
2016-Apr-17 16:31N 53°20' E 006°56'0 0.0
2016-Apr-17 15:31N 53°20' E 006°56'0 0.0
2016-Apr-17 14:31N 53°20' E 006°56'0 0.0
2016-Apr-17 13:31N 53°20' E 006°56'0 0.0
2016-Apr-17 12:31N 53°20' E 006°56'0 0.0
2016-Apr-17 11:28N 53°20' E 006°56'0 0.0
2016-Apr-17 10:31N 53°20' E 006°56'0 0.0
2016-Apr-17 09:31N 53°20' E 006°56'0 0.0
2016-Apr-17 08:31N 53°20' E 006°56'0 0.0
2016-Apr-17 07:31N 53°20' E 006°56'0 0.0
2016-Apr-17 06:28N 53°20' E 006°56'0 0.0
2016-Apr-17 05:31N 53°20' E 006°56'0 0.0
2016-Apr-17 04:31N 53°20' E 006°56'0 0.0
2016-Apr-17 03:31N 53°20' E 006°56'0 0.0
2016-Apr-17 02:31N 53°20' E 006°56'0 0.0
2016-Apr-17 01:31N 53°20' E 006°56'0 0.0
2016-Apr-17 00:31N 53°20' E 006°56'0 0.0
2016-Apr-16 23:31N 53°20' E 006°56'0 0.0
2016-Apr-16 22:31N 53°20' E 006°56'0 0.0
2016-Apr-16 21:31N 53°20' E 006°56'0 0.0
2016-Apr-16 20:31N 53°20' E 006°56'0 0.0
2016-Apr-16 19:31N 53°20' E 006°56'0 0.0
2016-Apr-16 18:31N 53°20' E 006°56'0 0.0
2016-Apr-16 17:31N 53°20' E 006°56'0 0.0
2016-Apr-16 16:31N 53°20' E 006°56'0 0.0
2016-Apr-16 15:31N 53°20' E 006°56'0 0.0
2016-Apr-16 14:31N 53°20' E 006°56'0 0.0
2016-Apr-16 13:31N 53°20' E 006°56'0 0.0
2016-Apr-16 12:31N 53°20' E 006°56'0 0.0
2016-Apr-16 11:31N 53°20' E 006°56'0 0.0
2016-Apr-16 10:28N 53°20' E 006°56'0 0.0
2016-Apr-16 09:31N 53°20' E 006°56'0 0.0
2016-Apr-16 08:31N 53°20' E 006°56'0 0.0
2016-Apr-16 07:31N 53°20' E 006°56'0 0.0
2016-Apr-16 06:31N 53°20' E 006°56'0 0.0
2016-Apr-16 05:31N 53°20' E 006°56'0 0.0
2016-Apr-16 04:31N 53°20' E 006°56'0 0.0
2016-Apr-16 03:31N 53°20' E 006°56'0 0.0
2016-Apr-16 02:31N 53°20' E 006°56'0 0.0
2016-Apr-16 01:31N 53°20' E 006°56'0 0.0
2016-Apr-16 00:31N 53°20' E 006°56'0 0.0
2016-Apr-15 23:31N 53°20' E 006°56'0 0.0
2016-Apr-15 22:31N 53°20' E 006°56'0 0.0
2016-Apr-15 21:31N 53°20' E 006°56'0 0.0
2016-Apr-15 20:31N 53°20' E 006°56'0 0.0
2016-Apr-15 19:31N 53°20' E 006°56'0 0.0
2016-Apr-15 18:31N 53°20' E 006°56'0 0.0
2016-Apr-15 17:31N 53°20' E 006°56'0 0.0
2016-Apr-15 16:31N 53°20' E 006°56'0 0.0
2016-Apr-15 15:31N 53°20' E 006°56'0 0.0
2016-Apr-15 14:31N 53°20' E 006°56'0 0.0
2016-Apr-15 13:31N 53°20' E 006°56'0 0.0
2016-Apr-15 12:31N 53°20' E 006°56'0 0.0
2016-Apr-15 11:28N 53°20' E 006°56'0 0.0
2016-Apr-15 10:28N 53°20' E 006°56'0 0.0
2016-Apr-15 09:31N 53°20' E 006°56'0 0.0
2016-Apr-15 08:31N 53°20' E 006°56'0 0.0
2016-Apr-15 07:31N 53°20' E 006°56'0 0.0
2016-Apr-15 06:31N 53°20' E 006°56'0 0.0
2016-Apr-15 05:31N 53°20' E 006°56'0 0.0
2016-Apr-15 04:31N 53°20' E 006°56'0 0.0
2016-Apr-15 03:31N 53°20' E 006°56'0 0.0
2016-Apr-15 02:31N 53°20' E 006°56'0 0.0
2016-Apr-15 01:31N 53°20' E 006°56'0 0.0
2016-Apr-15 00:31N 53°20' E 006°56'0 0.0
2016-Apr-14 23:31N 53°20' E 006°56'0 0.0
2016-Apr-14 22:31N 53°20' E 006°56'0 0.0
2016-Apr-14 21:31N 53°20' E 006°56'0 0.0
2016-Apr-14 20:28N 53°20' E 006°56'0 0.0
2016-Apr-14 19:31N 53°20' E 006°56'0 0.0
2016-Apr-14 18:31N 53°20' E 006°56'0 0.0
2016-Apr-14 17:28N 53°20' E 006°56'0 0.0
2016-Apr-14 16:31N 53°20' E 006°56'0 0.0
2016-Apr-14 15:31N 53°20' E 006°56'0 0.0
2016-Apr-14 14:31N 53°20' E 006°56'0 0.0
2016-Apr-14 13:31N 53°20' E 006°56'0 0.1
2016-Apr-14 12:31N 53°20' E 006°56'0 0.1
2016-Apr-14 11:31N 53°20' E 006°56'0 0.0
2016-Apr-14 10:31N 53°20' E 006°56'0 0.0
2016-Apr-14 09:31N 53°20' E 006°56'0 0.0
2016-Apr-14 08:31N 53°20' E 006°56'0 0.0
2016-Apr-14 07:31N 53°20' E 006°56'0 0.0
2016-Apr-14 06:31N 53°20' E 006°56'0 0.0
2016-Apr-14 05:31N 53°20' E 006°56'0 0.0
2016-Apr-14 04:31N 53°20' E 006°56'0 0.0
2016-Apr-14 03:31N 53°20' E 006°56'  
Track history (hours):
 
Tides and Currents Weather Stations Pressure Air Temp Water Temp Dewpoint Dewpoint Depression Visibility Wind Speed Wind Dir Waves Ship Positions

Leonie

Last reported at 2016-Apr-24 02:31 UTC. Time now 2016-May-02 19:21 UTC.
Position N 06°27' E 003°22'.
Warning: this ship's position is 8 days out of date.

Length 90 m; draft 5.4 m.

Type: Cargo ship. MMSI: 244772000.

Date/timePositionNaut miles runAvg speedWind from/ knotsBaromVisibWave heightAir tempDewpointWater temp
2016-Apr-24 02:31N 06°27' E 003°22'3020275.2
2016-Apr-23 15:33N 55°41' E 015°34'1111.5
2016-Apr-23 14:33N 55°35' E 015°17'1211.6
2016-Apr-23 13:34N 55°29' E 014°60'1211.6
2016-Apr-23 12:34N 55°24' E 014°42'1211.6
2016-Apr-23 11:34N 55°15' E 014°29'1111.5
2016-Apr-23 10:34N 55°06' E 014°16'1211.5
2016-Apr-23 09:34N 54°59' E 014°00'1211.8
2016-Apr-23 08:33N 54°54' E 013°41'1111.5
2016-Apr-23 07:33N 54°50' E 013°23'2311.6
2016-Apr-23 05:33N 54°42' E 012°45'1711.9
2016-Apr-23 04:08N 54°32' E 012°21'711.6
2016-Apr-23 03:32N 54°27' E 012°13'1111.2
2016-Apr-23 02:33N 54°25' E 011°55'1212.0
2016-Apr-23 01:34N 54°28' E 011°35'1212.1
2016-Apr-23 00:33N 54°33' E 011°16'1312.6
2016-Apr-22 23:34N 54°34' E 010°54'1211.9
2016-Apr-22 22:33N 54°33' E 010°34'1111.4
2016-Apr-22 21:34N 54°28' E 010°16'7 7.3
2016-Apr-22 20:33N 54°22' E 010°09'3 3.3
2016-Apr-22 19:34N 54°22' E 010°03'8 7.7
2016-Apr-22 18:33N 54°22' E 009°49'9 7.8
2016-Apr-22 17:23N 54°16' E 009°38'7 7.9
2016-Apr-22 16:27N 54°11' E 009°29'7 7.8
2016-Apr-22 15:33N 54°06' E 009°20'8 8.4
2016-Apr-22 14:33N 53°58' E 009°16'6 5.6
2016-Apr-22 13:33N 53°54' E 009°09'0 0.0
2016-Apr-22 12:33N 53°54' E 009°09'0 0.3
2016-Apr-22 11:33N 53°54' E 009°09'0 0.1
2016-Apr-22 10:33N 53°54' E 009°09'2 1.7
2016-Apr-22 09:33N 53°53' E 009°06'5 4.7
2016-Apr-22 08:33N 53°51' E 008°59'9 8.6
2016-Apr-22 07:34N 53°51' E 008°45'8 8.4
2016-Apr-22 06:33N 53°58' E 008°35'9 8.6
2016-Apr-22 05:32N 53°59' E 008°20'1010.4
2016-Apr-22 04:33N 53°58' E 008°03'1010.4
2016-Apr-22 03:33N 53°56' E 007°46'1010.2
2016-Apr-22 02:33N 53°54' E 007°29'1010.3
2016-Apr-22 01:34N 53°51' E 007°12'1110.7
2016-Apr-22 00:33N 53°48' E 006°55'1110.9
2016-Apr-21 23:33N 53°43' E 006°38'1010.1
2016-Apr-21 22:34N 53°37' E 006°25'1110.7
2016-Apr-21 21:34N 53°33' E 006°41'10 9.9
2016-Apr-21 20:34N 53°27' E 006°54'9 8.5
2016-Apr-21 19:34N 53°19' E 007°00'2 1.9
2016-Apr-21 18:32N 53°19' E 006°57'0 0.0
2016-Apr-21 17:32N 53°19' E 006°57'0 0.0
2016-Apr-21 16:32N 53°19' E 006°57'0 0.0
2016-Apr-21 15:32N 53°19' E 006°57'0 0.0
2016-Apr-21 14:32N 53°19' E 006°57'0 0.0
2016-Apr-21 13:32N 53°19' E 006°57'0 0.0
2016-Apr-21 12:32N 53°19' E 006°57'0 0.0
2016-Apr-21 11:32N 53°19' E 006°57'0 0.0
2016-Apr-21 10:32N 53°19' E 006°57'0 0.0
2016-Apr-21 09:32N 53°19' E 006°57'1 0.6
2016-Apr-21 08:31N 53°20' E 006°56'0 0.0
2016-Apr-21 07:31N 53°20' E 006°56'0 0.0
2016-Apr-21 06:31N 53°20' E 006°56'0 0.0
2016-Apr-21 05:31N 53°20' E 006°56'0 0.0
2016-Apr-21 04:31N 53°20' E 006°56'0 0.0
2016-Apr-21 03:31N 53°20' E 006°56'0 0.0
2016-Apr-21 02:31N 53°20' E 006°56'0 0.0
2016-Apr-21 01:31N 53°20' E 006°56'0 0.0
2016-Apr-21 00:28N 53°20' E 006°56'0 0.0
2016-Apr-20 23:31N 53°20' E 006°56'0 0.0
2016-Apr-20 22:31N 53°20' E 006°56'0 0.0
2016-Apr-20 21:31N 53°20' E 006°56'0 0.0
2016-Apr-20 20:31N 53°20' E 006°56'0 0.0
2016-Apr-20 19:31N 53°20' E 006°56'0 0.0
2016-Apr-20 18:31N 53°20' E 006°56'0 0.0
2016-Apr-20 17:31N 53°20' E 006°56'0 0.0
2016-Apr-20 16:31N 53°20' E 006°56'0 0.0
2016-Apr-20 15:31N 53°20' E 006°56'0 0.0
2016-Apr-20 14:28N 53°20' E 006°56'0 0.0
2016-Apr-20 13:31N 53°20' E 006°56'0 0.0
2016-Apr-20 12:31N 53°20' E 006°56'0 0.0
2016-Apr-20 11:31N 53°20' E 006°56'0 0.0
2016-Apr-20 10:31N 53°20' E 006°56'0 0.0
2016-Apr-20 09:31N 53°20' E 006°56'0 0.0
2016-Apr-20 08:31N 53°20' E 006°56'0 0.0
2016-Apr-20 07:31N 53°20' E 006°56'0 0.0
2016-Apr-20 06:31N 53°20' E 006°56'0 0.0
2016-Apr-20 05:31N 53°20' E 006°56'0 0.0
2016-Apr-20 04:31N 53°20' E 006°56'0 0.0
2016-Apr-20 03:31N 53°20' E 006°56'0 0.0
2016-Apr-20 02:31N 53°20' E 006°56'0 0.0
2016-Apr-20 01:31N 53°20' E 006°56'0 0.0
2016-Apr-20 00:31N 53°20' E 006°56'0 0.0
2016-Apr-19 23:31N 53°20' E 006°56'0 0.0
2016-Apr-19 22:31N 53°20' E 006°56'0 0.0
2016-Apr-19 21:28N 53°20' E 006°56'0 0.0
2016-Apr-19 20:31N 53°20' E 006°56'0 0.0
2016-Apr-19 19:31N 53°20' E 006°56'0 0.0
2016-Apr-19 18:31N 53°20' E 006°56'0 0.0
2016-Apr-19 17:31N 53°20' E 006°56'0 0.0
2016-Apr-19 16:31N 53°20' E 006°56'0 0.0
2016-Apr-19 15:31N 53°20' E 006°56'0 0.0
2016-Apr-19 14:31N 53°20' E 006°56'0 0.0
2016-Apr-19 13:31N 53°20' E 006°56'0 0.0
2016-Apr-19 12:31N 53°20' E 006°56'0 0.0
2016-Apr-19 11:31N 53°20' E 006°56'0 0.0
2016-Apr-19 10:31N 53°20' E 006°56'0 0.0
2016-Apr-19 09:31N 53°20' E 006°56'0 0.0
2016-Apr-19 08:31N 53°20' E 006°56'0 0.0
2016-Apr-19 07:31N 53°20' E 006°56'0 0.0
2016-Apr-19 06:31N 53°20' E 006°56'0 0.0
2016-Apr-19 05:31N 53°20' E 006°56'0 0.0
2016-Apr-19 04:31N 53°20' E 006°56'0 0.0
2016-Apr-19 03:31N 53°20' E 006°56'0 0.0
2016-Apr-19 02:31N 53°20' E 006°56'0 0.0
2016-Apr-19 01:31N 53°20' E 006°56'0 0.0
2016-Apr-19 00:31N 53°20' E 006°56'0 0.0
2016-Apr-18 23:31N 53°20' E 006°56'0 0.0
2016-Apr-18 22:31N 53°20' E 006°56'0 0.0
2016-Apr-18 21:31N 53°20' E 006°56'0 0.0
2016-Apr-18 20:31N 53°20' E 006°56'0 0.0
2016-Apr-18 19:31N 53°20' E 006°56'0 0.0
2016-Apr-18 18:31N 53°20' E 006°56'0 0.0
2016-Apr-18 17:31N 53°20' E 006°56'0 0.0
2016-Apr-18 16:31N 53°20' E 006°56'0 0.0
2016-Apr-18 15:31N 53°20' E 006°56'0 0.0
2016-Apr-18 14:31N 53°20' E 006°56'0 0.0
2016-Apr-18 13:31N 53°20' E 006°56'0 0.0
2016-Apr-18 12:31N 53°20' E 006°56'0 0.0
2016-Apr-18 11:25N 53°20' E 006°56'0 0.0
2016-Apr-18 10:31N 53°20' E 006°56'0 0.0
2016-Apr-18 09:31N 53°20' E 006°56'0 0.0
2016-Apr-18 08:28N 53°20' E 006°56'0 0.0
2016-Apr-18 07:31N 53°20' E 006°56'0 0.1
2016-Apr-18 06:31N 53°20' E 006°56'0 0.0
2016-Apr-18 05:31N 53°20' E 006°56'0 0.0
2016-Apr-18 04:31N 53°20' E 006°56'0 0.0
2016-Apr-18 03:28N 53°20' E 006°56'0 0.0
2016-Apr-18 02:28N 53°20' E 006°56'0 0.0
2016-Apr-18 01:31N 53°20' E 006°56'0 0.0
2016-Apr-18 00:31N 53°20' E 006°56'0 0.0
2016-Apr-17 23:31N 53°20' E 006°56'0 0.0
2016-Apr-17 22:31N 53°20' E 006°56'0 0.0
2016-Apr-17 21:31N 53°20' E 006°56'0 0.0
2016-Apr-17 20:31N 53°20' E 006°56'0 0.0
2016-Apr-17 19:31N 53°20' E 006°56'0 0.0
2016-Apr-17 18:31N 53°20' E 006°56'0 0.0
2016-Apr-17 17:31N 53°20' E 006°56'0 0.0
2016-Apr-17 16:31N 53°20' E 006°56'0 0.0
2016-Apr-17 15:31N 53°20' E 006°56'0 0.0
2016-Apr-17 14:31N 53°20' E 006°56'0 0.0
2016-Apr-17 13:31N 53°20' E 006°56'0 0.0
2016-Apr-17 12:31N 53°20' E 006°56'0 0.0
2016-Apr-17 11:28N 53°20' E 006°56'0 0.0
2016-Apr-17 10:31N 53°20' E 006°56'0 0.0
2016-Apr-17 09:31N 53°20' E 006°56'0 0.0
2016-Apr-17 08:31N 53°20' E 006°56'0 0.0
2016-Apr-17 07:31N 53°20' E 006°56'0 0.0
2016-Apr-17 06:28N 53°20' E 006°56'0 0.0
2016-Apr-17 05:31N 53°20' E 006°56'0 0.0
2016-Apr-17 04:31N 53°20' E 006°56'0 0.0
2016-Apr-17 03:31N 53°20' E 006°56'0 0.0
2016-Apr-17 02:31N 53°20' E 006°56'0 0.0
2016-Apr-17 01:31N 53°20' E 006°56'0 0.0
2016-Apr-17 00:31N 53°20' E 006°56'0 0.0
2016-Apr-16 23:31N 53°20' E 006°56'0 0.0
2016-Apr-16 22:31N 53°20' E 006°56'0 0.0
2016-Apr-16 21:31N 53°20' E 006°56'0 0.0
2016-Apr-16 20:31N 53°20' E 006°56'0 0.0
2016-Apr-16 19:31N 53°20' E 006°56'0 0.0
2016-Apr-16 18:31N 53°20' E 006°56'0 0.0
2016-Apr-16 17:31N 53°20' E 006°56'0 0.0
2016-Apr-16 16:31N 53°20' E 006°56'0 0.0
2016-Apr-16 15:31N 53°20' E 006°56'0 0.0
2016-Apr-16 14:31N 53°20' E 006°56'0 0.0
2016-Apr-16 13:31N 53°20' E 006°56'0 0.0
2016-Apr-16 12:31N 53°20' E 006°56'0 0.0
2016-Apr-16 11:31N 53°20' E 006°56'0 0.0
2016-Apr-16 10:28N 53°20' E 006°56'0 0.0
2016-Apr-16 09:31N 53°20' E 006°56'0 0.0
2016-Apr-16 08:31N 53°20' E 006°56'0 0.0
2016-Apr-16 07:31N 53°20' E 006°56'0 0.0
2016-Apr-16 06:31N 53°20' E 006°56'0 0.0
2016-Apr-16 05:31N 53°20' E 006°56'0 0.0
2016-Apr-16 04:31N 53°20' E 006°56'0 0.0
2016-Apr-16 03:31N 53°20' E 006°56'0 0.0
2016-Apr-16 02:31N 53°20' E 006°56'0 0.0
2016-Apr-16 01:31N 53°20' E 006°56'0 0.0
2016-Apr-16 00:31N 53°20' E 006°56'0 0.0
2016-Apr-15 23:31N 53°20' E 006°56'0 0.0
2016-Apr-15 22:31N 53°20' E 006°56'0 0.0
2016-Apr-15 21:31N 53°20' E 006°56'0 0.0
2016-Apr-15 20:31N 53°20' E 006°56'0 0.0
2016-Apr-15 19:31N 53°20' E 006°56'0 0.0
2016-Apr-15 18:31N 53°20' E 006°56'0 0.0
2016-Apr-15 17:31N 53°20' E 006°56'0 0.0
2016-Apr-15 16:31N 53°20' E 006°56'0 0.0
2016-Apr-15 15:31N 53°20' E 006°56'0 0.0
2016-Apr-15 14:31N 53°20' E 006°56'0 0.0
2016-Apr-15 13:31N 53°20' E 006°56'0 0.0
2016-Apr-15 12:31N 53°20' E 006°56'0 0.0
2016-Apr-15 11:28N 53°20' E 006°56'0 0.0
2016-Apr-15 10:28N 53°20' E 006°56'0 0.0
2016-Apr-15 09:31N 53°20' E 006°56'0 0.0
2016-Apr-15 08:31N 53°20' E 006°56'0 0.0
2016-Apr-15 07:31N 53°20' E 006°56'0 0.0
2016-Apr-15 06:31N 53°20' E 006°56'0 0.0
2016-Apr-15 05:31N 53°20' E 006°56'0 0.0
2016-Apr-15 04:31N 53°20' E 006°56'0 0.0
2016-Apr-15 03:31N 53°20' E 006°56'0 0.0
2016-Apr-15 02:31N 53°20' E 006°56'0 0.0
2016-Apr-15 01:31N 53°20' E 006°56'0 0.0
2016-Apr-15 00:31N 53°20' E 006°56'0 0.0
2016-Apr-14 23:31N 53°20' E 006°56'0 0.0
2016-Apr-14 22:31N 53°20' E 006°56'0 0.0
2016-Apr-14 21:31N 53°20' E 006°56'0 0.0
2016-Apr-14 20:28N 53°20' E 006°56'0 0.0
2016-Apr-14 19:31N 53°20' E 006°56'0 0.0
2016-Apr-14 18:31N 53°20' E 006°56'0 0.0
2016-Apr-14 17:28N 53°20' E 006°56'0 0.0
2016-Apr-14 16:31N 53°20' E 006°56'0 0.0
2016-Apr-14 15:31N 53°20' E 006°56'0 0.0
2016-Apr-14 14:31N 53°20' E 006°56'0 0.0
2016-Apr-14 13:31N 53°20' E 006°56'0 0.1
2016-Apr-14 12:31N 53°20' E 006°56'0 0.1
2016-Apr-14 11:31N 53°20' E 006°56'0 0.0
2016-Apr-14 10:31N 53°20' E 006°56'0 0.0
2016-Apr-14 09:31N 53°20' E 006°56'0 0.0
2016-Apr-14 08:31N 53°20' E 006°56'0 0.0
2016-Apr-14 07:31N 53°20' E 006°56'0 0.0
2016-Apr-14 06:31N 53°20' E 006°56'0 0.0
2016-Apr-14 05:31N 53°20' E 006°56'0 0.0
2016-Apr-14 04:31N 53°20' E 006°56'0 0.0
2016-Apr-14 03:31N 53°20' E 006°56'  

Dump ship's entire track history